Terminal Aerodrome Forecast
Issued by NWS

Home | Current Version | Previous Version | Text Only | Print | Product List | Glossary Off
Versions: 1 2 3 4 5 6 7 8 9 10 11 12 13 14 15 16 17 18 19 20

000
FTUS43 KBIS 231726
TAFMOT
TAF
KMOT 231726Z 2318/2418 31005KT P6SM OVC150
     FM240300 33007KT 1 1/2SM BR BKN015
     FM241200 36005KT 1 1/2SM BR BKN003
     FM241600 36004KT 2SM BR SCT003=

USA.gov is the U.S. government's official web portal to all federal, state and local government web resources and services.